A80 TRACON Summary / KATL TAF
ATL TRACON Summary:
Expect SCT030-045 clouds in the TRACON aispace. Surface winds will be from the northeast at 3-7kts and occasional calm, becoming north to northwest by 18-19z. No significant flight hazards are expected in the TRACON airspace.

Updated:9/18/2014 12:05 PM
ATL Terminal Aerodrome Forecast:

FTUS80 KATL 182342
KATL 182341Z 1900/2006 VRB03KT P6SM SCT060
     FM190500 03003KT P6SM SCT025 SCT200
     FM191100 07005KT P6SM BKN008
     FM191400 09007KT P6SM SCT025
     FM191600 10009KT P6SM SCT040
ATL TRACON Area Remark:
NONE.
Convective Gate Forecast / Collaborative Convective Forecast Product / Vertical Wind Profile
Convective Gate Forecast
SIGMETS/ Southeast Radar & Satellite Loops (click on image to enlarge)

Southeast Radar Loop

 



USA.gov is the U.S. government's official web portal to all federal, state and local government web resources and services.